createdAt,value
2018-09-30T00:01:10.868Z,52.10
2018-09-30T00:03:38.485Z,52.00
2018-09-30T00:06:06.310Z,52.00
2018-09-30T00:08:33.944Z,52.00
2018-09-30T00:11:01.584Z,51.90
2018-09-30T00:13:29.224Z,51.90
2018-09-30T00:15:56.867Z,51.90
2018-09-30T00:18:24.493Z,51.90
2018-09-30T00:20:52.120Z,51.90
2018-09-30T00:23:19.734Z,51.90
2018-09-30T00:25:52.754Z,51.80
2018-09-30T00:28:20.376Z,51.80
2018-09-30T00:30:48.010Z,51.80
2018-09-30T00:33:15.634Z,51.70
2018-09-30T00:35:43.263Z,51.70
2018-09-30T00:38:10.886Z,51.70
2018-09-30T00:40:38.560Z,51.70
2018-09-30T00:43:06.191Z,51.60
2018-09-30T00:45:33.830Z,51.60
2018-09-30T00:48:01.525Z,51.60
2018-09-30T00:50:29.139Z,51.60
2018-09-30T00:52:56.783Z,51.50
2018-09-30T00:55:24.411Z,51.50
2018-09-30T00:57:52.037Z,51.40
2018-09-30T01:00:19.657Z,51.40
2018-09-30T01:02:47.287Z,51.40
2018-09-30T01:05:14.931Z,51.40
2018-09-30T01:07:42.560Z,51.40
2018-09-30T01:10:10.476Z,51.30
2018-09-30T01:12:38.110Z,51.30
2018-09-30T01:15:06.017Z,51.30
2018-09-30T01:17:33.629Z,51.20
2018-09-30T01:20:01.242Z,51.20
2018-09-30T01:22:28.856Z,51.20
2018-09-30T01:24:56.477Z,51.10
2018-09-30T01:27:24.076Z,51.10
2018-09-30T01:29:51.724Z,51.00
2018-09-30T01:32:19.353Z,51.00
2018-09-30T01:34:46.961Z,50.90
2018-09-30T01:37:14.609Z,50.80
2018-09-30T01:39:42.230Z,51.40
2018-09-30T01:42:09.847Z,50.80
2018-09-30T01:44:37.467Z,50.80
2018-09-30T01:47:05.091Z,50.70
2018-09-30T01:49:32.697Z,50.80
2018-09-30T01:52:05.907Z,50.70
2018-09-30T01:54:33.518Z,51.30
2018-09-30T01:57:01.292Z,50.70
2018-09-30T01:59:29.340Z,50.70
2018-09-30T02:01:57.973Z,50.60
2018-09-30T02:04:26.019Z,50.60
2018-09-30T02:06:54.709Z,50.70
2018-09-30T02:09:22.716Z,50.60
2018-09-30T02:11:50.679Z,50.60
2018-09-30T02:14:18.650Z,50.50
2018-09-30T02:16:46.653Z,50.50
2018-09-30T02:19:14.652Z,50.50
2018-09-30T02:21:43.013Z,50.50
2018-09-30T02:24:11.018Z,50.40
2018-09-30T02:26:38.643Z,51.00
2018-09-30T02:29:06.340Z,50.40
2018-09-30T02:31:33.976Z,50.30
2018-09-30T02:34:01.610Z,50.30
2018-09-30T02:36:29.211Z,50.20
2018-09-30T02:38:56.798Z,50.30
2018-09-30T02:41:24.451Z,50.20
2018-09-30T02:43:52.077Z,50.10
2018-09-30T02:46:19.698Z,50.00
2018-09-30T02:48:47.332Z,49.90
2018-09-30T02:51:14.957Z,49.80
2018-09-30T02:53:42.594Z,49.70
2018-09-30T02:56:10.235Z,49.70
2018-09-30T02:58:37.846Z,49.70
2018-09-30T03:01:05.505Z,49.70
2018-09-30T03:03:33.140Z,49.70
2018-09-30T03:06:00.822Z,49.70
2018-09-30T03:08:33.913Z,49.70
2018-09-30T03:11:01.588Z,49.70
2018-09-30T03:13:29.189Z,49.70
2018-09-30T03:15:56.779Z,49.70
2018-09-30T03:18:24.602Z,49.70
2018-09-30T03:20:52.225Z,49.70
2018-09-30T03:23:19.858Z,49.70
2018-09-30T03:25:47.487Z,49.60
2018-09-30T03:28:15.106Z,49.70
2018-09-30T03:30:42.839Z,49.60
2018-09-30T03:33:10.532Z,49.70
2018-09-30T03:35:38.189Z,49.60
2018-09-30T03:38:05.931Z,49.70
2018-09-30T03:40:33.548Z,49.60
2018-09-30T03:43:02.019Z,49.50
2018-09-30T03:45:29.699Z,49.70
2018-09-30T03:47:57.345Z,49.40
2018-09-30T03:50:24.966Z,49.40
2018-09-30T03:52:52.693Z,49.40
2018-09-30T03:55:20.392Z,49.40
2018-09-30T03:57:48.047Z,49.30
2018-09-30T04:00:15.675Z,49.30
2018-09-30T04:02:43.326Z,49.30
2018-09-30T04:05:10.969Z,49.20
2018-09-30T04:07:38.675Z,49.20
2018-09-30T04:10:06.399Z,49.10
2018-09-30T04:12:34.077Z,49.10
2018-09-30T04:15:01.700Z,49.10
2018-09-30T04:17:29.338Z,49.10
2018-09-30T04:19:56.970Z,49.00
2018-09-30T04:22:24.638Z,49.00
2018-09-30T04:24:52.324Z,49.00
2018-09-30T04:27:19.976Z,48.90
2018-09-30T04:29:47.666Z,48.90
2018-09-30T04:32:15.287Z,48.80
2018-09-30T04:34:42.933Z,48.80
2018-09-30T04:37:10.547Z,48.80
2018-09-30T04:39:38.200Z,48.80
2018-09-30T04:42:06.070Z,48.70
2018-09-30T04:44:33.690Z,48.60
2018-09-30T04:47:01.408Z,48.70
2018-09-30T04:49:29.046Z,48.60
2018-09-30T04:51:56.679Z,48.50
2018-09-30T04:54:24.329Z,48.60
2018-09-30T04:56:52.026Z,48.60
2018-09-30T04:59:19.641Z,48.60
2018-09-30T05:01:47.265Z,48.60
2018-09-30T05:04:14.875Z,48.50
2018-09-30T05:06:42.598Z,48.50
2018-09-30T05:09:10.681Z,48.40
2018-09-30T05:11:38.443Z,48.50
2018-09-30T05:14:06.090Z,48.40
2018-09-30T05:16:33.934Z,48.50
2018-09-30T05:19:01.452Z,48.50
2018-09-30T05:21:29.248Z,48.40
2018-09-30T05:23:56.897Z,48.40
2018-09-30T05:26:24.639Z,48.40
2018-09-30T05:28:52.320Z,48.40
2018-09-30T05:31:20.037Z,48.40
2018-09-30T05:33:47.682Z,48.40
2018-09-30T05:36:15.328Z,48.40
2018-09-30T05:38:42.921Z,48.30
2018-09-30T05:41:10.943Z,48.20
2018-09-30T05:43:38.602Z,48.20
2018-09-30T05:46:06.276Z,48.20
2018-09-30T05:48:33.890Z,48.20
2018-09-30T05:51:01.521Z,48.20
2018-09-30T05:53:29.197Z,48.20
2018-09-30T05:55:56.878Z,48.20
2018-09-30T05:58:24.506Z,48.10
2018-09-30T06:00:52.266Z,48.10
2018-09-30T06:03:19.892Z,47.90
2018-09-30T06:05:47.754Z,47.90
2018-09-30T06:08:15.398Z,47.40
2018-09-30T06:10:43.138Z,48.00
2018-09-30T06:13:10.813Z,47.90
2018-09-30T06:15:38.549Z,48.10
2018-09-30T06:18:06.272Z,48.00
2018-09-30T06:20:33.926Z,48.00
2018-09-30T06:23:01.653Z,48.00
2018-09-30T06:25:29.558Z,48.00
2018-09-30T06:27:57.268Z,48.10
2018-09-30T06:30:25.219Z,48.10
2018-09-30T06:32:53.046Z,48.10
2018-09-30T06:35:20.716Z,48.20
2018-09-30T06:37:48.370Z,48.00
2018-09-30T06:40:16.065Z,48.40
2018-09-30T06:42:43.694Z,48.80
2018-09-30T06:45:11.443Z,49.20
2018-09-30T06:47:39.138Z,49.20
2018-09-30T06:50:06.757Z,49.20
2018-09-30T06:52:34.552Z,49.30
2018-09-30T06:55:02.191Z,49.60
2018-09-30T06:57:29.844Z,49.60
2018-09-30T06:59:57.524Z,49.60
2018-09-30T07:02:25.125Z,49.70
2018-09-30T07:04:52.824Z,50.00
2018-09-30T07:07:20.659Z,50.20
2018-09-30T07:09:48.326Z,50.20
2018-09-30T07:12:15.949Z,50.40
2018-09-30T07:14:44.625Z,50.60
2018-09-30T07:17:12.866Z,50.70
2018-09-30T07:19:41.606Z,50.90
2018-09-30T07:22:10.000Z,51.00
2018-09-30T07:24:38.771Z,51.10
2018-09-30T07:27:06.796Z,51.20
2018-09-30T07:29:34.837Z,51.30
2018-09-30T07:32:02.515Z,51.40
2018-09-30T07:34:30.213Z,51.40
2018-09-30T07:36:58.879Z,51.60
2018-09-30T07:39:26.558Z,51.60
2018-09-30T07:41:54.349Z,51.60
2018-09-30T07:44:22.029Z,51.80
2018-09-30T07:46:49.705Z,52.30
2018-09-30T07:49:17.309Z,52.00
2018-09-30T07:51:44.925Z,52.00
2018-09-30T07:54:12.556Z,52.00
2018-09-30T07:56:40.326Z,52.20
2018-09-30T07:59:08.279Z,52.20
2018-09-30T08:01:35.880Z,52.20
2018-09-30T08:04:03.599Z,52.40
2018-09-30T08:06:31.302Z,52.40
2018-09-30T08:08:58.926Z,52.50
2018-09-30T08:11:26.642Z,52.60
2018-09-30T08:13:54.263Z,52.70
2018-09-30T08:16:21.914Z,52.80
2018-09-30T08:18:49.601Z,52.80
2018-09-30T08:21:17.340Z,53.20
2018-09-30T08:23:45.035Z,53.20
2018-09-30T08:26:12.668Z,53.30
2018-09-30T08:28:40.421Z,53.50
2018-09-30T08:31:08.202Z,53.50
2018-09-30T08:33:37.388Z,53.60
2018-09-30T08:36:06.496Z,53.70
2018-09-30T08:38:35.133Z,53.80
2018-09-30T08:41:08.244Z,53.60
2018-09-30T08:43:37.050Z,53.40
2018-09-30T08:46:04.870Z,53.20
2018-09-30T08:48:32.624Z,53.10
2018-09-30T08:51:00.263Z,53.10
2018-09-30T08:53:27.907Z,53.00
2018-09-30T08:55:56.393Z,52.80
2018-09-30T08:58:24.779Z,52.80
2018-09-30T09:00:52.621Z,52.80
2018-09-30T09:03:20.293Z,52.80
2018-09-30T09:05:47.978Z,52.80
2018-09-30T09:08:15.856Z,52.80
2018-09-30T09:10:43.661Z,52.80
2018-09-30T09:13:11.307Z,52.90
2018-09-30T09:15:39.040Z,52.90
2018-09-30T09:18:06.630Z,53.20
2018-09-30T09:20:34.295Z,52.10
2018-09-30T09:23:01.884Z,52.00
2018-09-30T09:25:29.810Z,51.40
2018-09-30T09:27:57.626Z,51.10
2018-09-30T09:30:25.208Z,51.30
2018-09-30T09:32:55.482Z,51.20
2018-09-30T09:35:23.188Z,51.10
2018-09-30T09:37:50.785Z,50.90
2018-09-30T09:40:18.567Z,50.70
2018-09-30T09:42:46.253Z,50.50
2018-09-30T09:45:13.873Z,50.50
2018-09-30T09:47:41.499Z,50.50
2018-09-30T09:50:09.280Z,50.90
2018-09-30T09:52:37.051Z,50.00
2018-09-30T09:55:04.771Z,49.60
2018-09-30T09:57:32.376Z,49.90
2018-09-30T10:00:00.198Z,50.30
2018-09-30T10:02:27.813Z,50.60
2018-09-30T10:04:55.421Z,50.70
2018-09-30T10:07:23.099Z,50.80
2018-09-30T10:09:50.931Z,50.80
2018-09-30T10:12:18.558Z,50.80
2018-09-30T10:14:46.187Z,50.80
2018-09-30T10:17:14.874Z,50.90
2018-09-30T10:19:42.482Z,51.50
2018-09-30T10:22:10.179Z,50.90
2018-09-30T10:24:37.826Z,50.90
2018-09-30T10:27:05.426Z,51.50
2018-09-30T10:29:33.060Z,50.90
2018-09-30T10:32:00.778Z,50.90
2018-09-30T10:34:28.409Z,50.90
2018-09-30T10:36:56.040Z,50.80
2018-09-30T10:39:23.917Z,50.80
2018-09-30T10:41:51.363Z,50.80
2018-09-30T10:44:19.184Z,50.80
2018-09-30T10:46:46.921Z,50.70
2018-09-30T10:49:14.855Z,51.40
2018-09-30T10:51:42.610Z,50.70
2018-09-30T10:54:10.269Z,50.60
2018-09-30T10:56:37.975Z,50.60
2018-09-30T10:59:05.825Z,50.40
2018-09-30T11:01:35.518Z,50.60
2018-09-30T11:04:03.480Z,50.90
2018-09-30T11:06:31.145Z,50.60
2018-09-30T11:08:58.764Z,50.50
2018-09-30T11:11:26.394Z,50.50
2018-09-30T11:13:54.017Z,50.40
2018-09-30T11:16:21.690Z,50.50
2018-09-30T11:18:49.315Z,50.50
2018-09-30T11:21:16.934Z,50.40
2018-09-30T11:23:44.531Z,50.40
2018-09-30T11:26:12.232Z,50.40
2018-09-30T11:28:39.846Z,50.40
2018-09-30T11:31:07.542Z,50.40
2018-09-30T11:33:35.244Z,50.40
2018-09-30T11:36:02.886Z,51.00
2018-09-30T11:38:30.518Z,50.40
2018-09-30T11:40:58.188Z,51.00
2018-09-30T11:43:25.773Z,50.30
2018-09-30T11:45:53.449Z,50.30
2018-09-30T11:48:21.103Z,50.30
2018-09-30T11:50:48.811Z,50.30
2018-09-30T11:53:16.413Z,50.30
2018-09-30T11:55:44.054Z,50.30
2018-09-30T11:58:11.678Z,50.30
2018-09-30T12:00:39.403Z,50.30
2018-09-30T12:03:07.018Z,50.30
2018-09-30T12:05:34.656Z,50.20
2018-09-30T12:08:02.330Z,50.20
2018-09-30T12:10:29.943Z,50.20
2018-09-30T12:12:57.544Z,50.80
2018-09-30T12:15:25.161Z,50.20
2018-09-30T12:17:52.769Z,50.10
2018-09-30T12:20:20.385Z,50.20
2018-09-30T12:22:47.991Z,50.10
2018-09-30T12:25:15.608Z,50.10
2018-09-30T12:27:43.214Z,50.00
2018-09-30T12:30:10.838Z,50.00
2018-09-30T12:32:38.451Z,50.10
2018-09-30T12:35:06.183Z,49.90
2018-09-30T12:37:33.839Z,50.10
2018-09-30T12:40:01.728Z,50.10
2018-09-30T12:42:29.397Z,50.00
2018-09-30T12:44:58.159Z,50.00
2018-09-30T12:47:26.084Z,49.90
2018-09-30T12:49:53.714Z,49.80
2018-09-30T12:52:21.579Z,49.70
2018-09-30T12:54:49.245Z,49.60
2018-09-30T12:57:16.967Z,49.70
2018-09-30T12:59:44.683Z,49.60
2018-09-30T13:02:12.553Z,49.60
2018-09-30T13:04:40.441Z,49.60
2018-09-30T13:07:08.254Z,49.60
2018-09-30T13:09:36.006Z,49.60
2018-09-30T13:12:03.944Z,49.60
2018-09-30T13:14:31.545Z,49.60
2018-09-30T13:16:59.303Z,49.60
2018-09-30T13:19:27.100Z,49.60
2018-09-30T13:21:54.881Z,49.60
2018-09-30T13:24:22.657Z,49.60
2018-09-30T13:26:50.483Z,49.60
2018-09-30T13:29:18.104Z,49.60
2018-09-30T13:31:45.801Z,49.60
2018-09-30T13:34:13.584Z,49.60
2018-09-30T13:36:41.214Z,50.30
2018-09-30T13:39:09.694Z,49.60
2018-09-30T13:41:37.563Z,49.60
2018-09-30T13:44:05.385Z,49.60
2018-09-30T13:46:33.058Z,49.60
2018-09-30T13:49:00.680Z,49.60
2018-09-30T13:51:28.427Z,49.60
2018-09-30T13:53:56.191Z,49.60
2018-09-30T13:56:23.821Z,49.70
2018-09-30T13:58:51.776Z,49.10
2018-09-30T14:01:19.395Z,49.70
2018-09-30T14:03:47.241Z,49.60
2018-09-30T14:06:14.964Z,49.60
2018-09-30T14:08:42.591Z,49.60
2018-09-30T14:11:10.354Z,49.60
2018-09-30T14:13:37.999Z,49.60
2018-09-30T14:16:05.739Z,49.70
2018-09-30T14:18:33.369Z,49.90
2018-09-30T14:21:01.133Z,49.90
2018-09-30T14:23:28.744Z,49.90
2018-09-30T14:25:56.448Z,50.00
2018-09-30T14:28:24.079Z,50.00
2018-09-30T14:30:51.721Z,50.00
2018-09-30T14:33:19.361Z,50.00
2018-09-30T14:35:46.979Z,50.00
2018-09-30T14:38:14.593Z,50.00
2018-09-30T14:40:42.424Z,50.00
2018-09-30T14:43:10.061Z,49.90
2018-09-30T14:45:37.682Z,50.10
2018-09-30T14:48:05.744Z,50.00
2018-09-30T14:50:33.399Z,50.00
2018-09-30T14:53:01.183Z,50.00
2018-09-30T14:55:28.895Z,50.00
2018-09-30T14:57:57.129Z,50.00
2018-09-30T15:00:24.815Z,50.00
2018-09-30T15:02:52.535Z,50.00
2018-09-30T15:05:20.277Z,50.00
2018-09-30T15:07:48.074Z,50.00
2018-09-30T15:10:15.719Z,50.00
2018-09-30T15:12:43.357Z,50.00
2018-09-30T15:15:11.008Z,50.00
2018-09-30T15:17:38.905Z,50.00
2018-09-30T15:20:06.454Z,50.00
2018-09-30T15:22:34.128Z,49.90
2018-09-30T15:25:01.793Z,49.90
2018-09-30T15:27:29.765Z,50.00
2018-09-30T15:29:57.433Z,50.20
2018-09-30T15:32:25.196Z,50.10
2018-09-30T15:34:53.771Z,50.10
2018-09-30T15:37:22.662Z,50.10
2018-09-30T15:39:50.285Z,50.10
2018-09-30T15:42:18.048Z,50.10
2018-09-30T15:44:45.713Z,50.10
2018-09-30T15:47:13.454Z,50.10
2018-09-30T15:49:41.091Z,50.20
2018-09-30T15:52:08.753Z,50.00
2018-09-30T15:54:36.355Z,50.10
2018-09-30T15:57:03.990Z,50.10
2018-09-30T15:59:31.610Z,50.00
2018-09-30T16:01:59.248Z,50.00
2018-09-30T16:04:26.935Z,50.00
2018-09-30T16:06:54.535Z,50.00
2018-09-30T16:09:22.163Z,50.00
2018-09-30T16:11:49.866Z,49.90
2018-09-30T16:14:17.492Z,50.00
2018-09-30T16:16:45.192Z,50.00
2018-09-30T16:19:12.874Z,50.00
2018-09-30T16:21:40.490Z,49.90
2018-09-30T16:24:08.215Z,50.00
2018-09-30T16:26:35.930Z,49.90
2018-09-30T16:29:03.532Z,50.00
2018-09-30T16:31:31.152Z,49.90
2018-09-30T16:33:58.762Z,49.80
2018-09-30T16:36:26.471Z,49.80
2018-09-30T16:38:54.157Z,49.90
2018-09-30T16:41:21.833Z,50.00
2018-09-30T16:43:49.508Z,50.10
2018-09-30T16:46:17.149Z,50.10
2018-09-30T16:48:44.799Z,50.00
2018-09-30T16:51:13.561Z,49.90
2018-09-30T16:53:41.489Z,50.00
2018-09-30T16:56:09.880Z,49.80
2018-09-30T16:58:37.900Z,49.70
2018-09-30T17:01:07.743Z,49.70
2018-09-30T17:03:35.483Z,49.70
2018-09-30T17:06:04.819Z,49.60
2018-09-30T17:08:32.531Z,49.60
2018-09-30T17:11:02.765Z,49.70
2018-09-30T17:13:30.513Z,49.70
2018-09-30T17:15:58.843Z,49.70
2018-09-30T17:18:26.550Z,49.50
2018-09-30T17:20:54.872Z,49.40
2018-09-30T17:23:22.820Z,49.40
2018-09-30T17:25:51.009Z,49.20
2018-09-30T17:28:19.391Z,49.20
2018-09-30T17:30:49.612Z,49.30
2018-09-30T17:33:17.868Z,49.20
2018-09-30T17:35:45.791Z,49.20
2018-09-30T17:38:13.571Z,49.20
2018-09-30T17:40:41.406Z,49.20
2018-09-30T17:43:09.922Z,49.20
2018-09-30T17:45:37.732Z,49.20
2018-09-30T17:48:05.874Z,49.10
2018-09-30T17:50:33.962Z,49.10
2018-09-30T17:53:02.270Z,49.10
2018-09-30T17:55:31.236Z,49.00
2018-09-30T17:57:59.534Z,49.00
2018-09-30T18:00:28.586Z,49.10
2018-09-30T18:02:56.241Z,48.80
2018-09-30T18:05:23.935Z,49.10
2018-09-30T18:07:51.681Z,49.10
2018-09-30T18:10:19.443Z,49.10
2018-09-30T18:12:47.412Z,49.10
2018-09-30T18:15:15.286Z,49.10
2018-09-30T18:17:42.955Z,49.10
2018-09-30T18:20:10.742Z,49.10
2018-09-30T18:22:38.509Z,49.10
2018-09-30T18:25:06.335Z,49.10
2018-09-30T18:27:34.118Z,49.10
2018-09-30T18:30:02.147Z,49.10
2018-09-30T18:32:30.083Z,49.10
2018-09-30T18:34:57.928Z,49.10
2018-09-30T18:37:25.642Z,49.00
2018-09-30T18:39:53.376Z,49.10
2018-09-30T18:42:21.340Z,49.10
2018-09-30T18:44:48.972Z,49.10
2018-09-30T18:47:16.868Z,49.10
2018-09-30T18:49:44.659Z,49.70
2018-09-30T18:52:12.582Z,49.10
2018-09-30T18:54:40.243Z,49.10
2018-09-30T18:57:08.287Z,49.10
2018-09-30T18:59:36.102Z,49.20
2018-09-30T19:02:03.948Z,49.20
2018-09-30T19:04:31.779Z,49.20
2018-09-30T19:06:59.460Z,49.10
2018-09-30T19:09:27.264Z,49.10
2018-09-30T19:11:54.921Z,49.20
2018-09-30T19:14:22.531Z,49.20
2018-09-30T19:16:50.148Z,49.20
2018-09-30T19:19:17.817Z,48.90
2018-09-30T19:21:45.580Z,49.20
2018-09-30T19:24:13.309Z,48.90
2018-09-30T19:26:41.013Z,49.10
2018-09-30T19:29:08.725Z,49.10
2018-09-30T19:31:36.390Z,49.00
2018-09-30T19:34:04.127Z,48.90
2018-09-30T19:36:31.808Z,48.90
2018-09-30T19:38:59.638Z,48.80
2018-09-30T19:41:27.447Z,48.80
2018-09-30T19:43:55.120Z,48.70
2018-09-30T19:46:22.772Z,48.70
2018-09-30T19:48:50.472Z,48.60
2018-09-30T19:51:18.103Z,48.60
2018-09-30T19:53:45.898Z,48.60
2018-09-30T19:56:13.771Z,48.60
2018-09-30T19:58:41.569Z,48.50
2018-09-30T20:01:09.164Z,48.50
2018-09-30T20:03:36.900Z,48.50
2018-09-30T20:06:04.570Z,49.00
2018-09-30T20:08:32.306Z,48.40
2018-09-30T20:11:00.152Z,48.40
2018-09-30T20:13:27.907Z,48.30
2018-09-30T20:15:55.519Z,48.40
2018-09-30T20:18:23.137Z,48.30
2018-09-30T20:20:50.794Z,48.30
2018-09-30T20:23:18.516Z,48.90
2018-09-30T20:25:46.143Z,48.20
2018-09-30T20:28:13.824Z,48.20
2018-09-30T20:30:41.608Z,48.10
2018-09-30T20:33:09.225Z,48.10
2018-09-30T20:35:36.878Z,48.10
2018-09-30T20:38:04.712Z,48.00
2018-09-30T20:40:32.325Z,48.00
2018-09-30T20:42:59.995Z,48.10
2018-09-30T20:45:27.712Z,48.00
2018-09-30T20:47:55.319Z,48.00
2018-09-30T20:50:23.058Z,48.00
2018-09-30T20:52:50.950Z,48.00
2018-09-30T20:55:18.718Z,48.00
2018-09-30T20:57:46.370Z,47.90
2018-09-30T21:00:14.005Z,47.80
2018-09-30T21:02:41.614Z,47.90
2018-09-30T21:05:13.626Z,47.80
2018-09-30T21:07:41.149Z,47.80
2018-09-30T21:10:08.758Z,47.80
2018-09-30T21:12:36.409Z,47.70
2018-09-30T21:15:04.005Z,47.70
2018-09-30T21:17:31.614Z,47.70
2018-09-30T21:19:59.247Z,47.70
2018-09-30T21:22:26.853Z,47.60
2018-09-30T21:24:54.453Z,47.60
2018-09-30T21:27:22.047Z,47.60
2018-09-30T21:29:52.170Z,47.60
2018-09-30T21:32:19.836Z,47.60
2018-09-30T21:34:47.424Z,47.50
2018-09-30T21:37:15.055Z,47.50
2018-09-30T21:39:42.676Z,47.40
2018-09-30T21:42:10.272Z,47.30
2018-09-30T21:44:38.906Z,47.40
2018-09-30T21:47:06.571Z,47.40
2018-09-30T21:49:34.166Z,47.40
2018-09-30T21:52:01.805Z,47.40
2018-09-30T21:54:29.430Z,47.40
2018-09-30T21:56:57.038Z,47.40
2018-09-30T21:59:24.683Z,47.30
2018-09-30T22:01:52.309Z,47.40
2018-09-30T22:04:19.895Z,47.30
2018-09-30T22:06:47.525Z,47.30
2018-09-30T22:09:15.169Z,47.30
2018-09-30T22:11:42.783Z,47.90
2018-09-30T22:14:10.612Z,47.30
2018-09-30T22:16:38.217Z,47.30
2018-09-30T22:19:05.898Z,47.30
2018-09-30T22:21:33.512Z,47.20
2018-09-30T22:24:01.851Z,47.20
2018-09-30T22:26:29.456Z,47.20
2018-09-30T22:28:57.053Z,47.40
2018-09-30T22:31:24.658Z,47.20
2018-09-30T22:33:52.260Z,47.10
2018-09-30T22:36:19.869Z,47.10
2018-09-30T22:38:47.498Z,47.10
2018-09-30T22:41:15.088Z,47.10
2018-09-30T22:43:42.709Z,47.10
2018-09-30T22:46:10.307Z,47.10
2018-09-30T22:48:37.924Z,47.00
2018-09-30T22:51:05.530Z,47.00
2018-09-30T22:53:33.145Z,47.00
2018-09-30T22:56:00.761Z,47.00
2018-09-30T22:58:28.369Z,47.00
2018-09-30T23:00:55.972Z,46.90
2018-09-30T23:03:23.609Z,47.30
2018-09-30T23:05:51.220Z,47.00
2018-09-30T23:08:18.837Z,47.00
2018-09-30T23:10:46.477Z,46.90
2018-09-30T23:13:14.092Z,46.90
2018-09-30T23:15:41.778Z,46.90
2018-09-30T23:18:09.394Z,46.90
2018-09-30T23:20:37.023Z,46.90
2018-09-30T23:23:04.633Z,46.80
2018-09-30T23:25:32.254Z,46.20
2018-09-30T23:27:59.876Z,46.80
2018-09-30T23:30:27.492Z,46.80
2018-09-30T23:32:55.102Z,46.70
2018-09-30T23:35:22.749Z,46.80
2018-09-30T23:37:50.366Z,46.80
2018-09-30T23:40:18.089Z,47.40
2018-09-30T23:42:45.692Z,46.60
2018-09-30T23:45:13.392Z,46.70
2018-09-30T23:47:41.017Z,46.60
2018-09-30T23:50:08.645Z,46.60
2018-09-30T23:52:36.242Z,46.60
2018-09-30T23:55:03.878Z,46.50
2018-09-30T23:57:31.501Z,46.60
2018-09-30T23:59:59.114Z,46.60
